Time;durP1;ratioP1;P1;durP2;ratioP2;P2;SDS_P1;SDS_P2;PMS_P1;PMS_P2;Temp;Humidity;BMP_temperature;BMP_pressure;BME280_temperature;BME280_humidity;BME280_pressure;Samples;Min_cycle;Max_cycle;Signal;HPM_P1;HPM_P2
2021/07/19 00:01:42;;;;;;;;;;;24.40;77.00;;;;;;5134574;27;20275;-58
2021/07/19 00:04:09;;;;;;;;;;;24.40;76.90;;;;;;5134098;27;19923;-58
2021/07/19 00:06:36;;;;;;;;;;;24.40;76.90;;;;;;5122048;27;19927;-58
2021/07/19 00:09:05;;;;;;;;;;;24.40;76.90;;;;;;5127344;27;19935;-58
2021/07/19 00:11:35;;;;;;;;;;;24.40;77.00;;;;;;5134367;27;20014;-57
2021/07/19 00:14:02;;;;;;;;;;;24.40;76.90;;;;;;5125651;27;19927;-58
2021/07/19 00:16:31;;;;;;;;;;;24.40;77.00;;;;;;5123627;27;19923;-58
2021/07/19 00:19:00;;;;;;;;;;;24.40;76.90;;;;;;5132470;27;20015;-57
2021/07/19 00:21:27;;;;;;;;;;;24.40;77.00;;;;;;5132422;27;20393;-58
2021/07/19 00:23:54;;;;;;;;;;;24.30;77.00;;;;;;5132242;27;19928;-58
2021/07/19 00:26:22;;;;;;;;;;;24.30;76.90;;;;;;5131472;27;19924;-58
2021/07/19 00:28:49;;;;;;;;;;;24.30;77.00;;;;;;5132673;27;19968;-57
2021/07/19 00:31:16;;;;;;;;;;;24.30;76.90;;;;;;5132401;27;20360;-58
2021/07/19 00:33:44;;;;;;;;;;;24.30;76.90;;;;;;5133145;27;20436;-58
2021/07/19 00:36:10;;;;;;;;;;;24.30;76.90;;;;;;5131142;27;19924;-57
2021/07/19 00:38:38;;;;;;;;;;;24.30;76.90;;;;;;5132109;27;19924;-57
2021/07/19 00:41:05;;;;;;;;;;;24.40;77.00;;;;;;5132229;27;19933;-58
2021/07/19 00:43:32;;;;;;;;;;;24.30;76.90;;;;;;5114116;27;19962;-57
2021/07/19 00:45:59;;;;;;;;;;;24.30;76.90;;;;;;5132388;27;19924;-57
2021/07/19 00:48:26;;;;;;;;;;;24.30;76.80;;;;;;5132715;27;19930;-57
2021/07/19 00:50:53;;;;;;;;;;;24.30;76.80;;;;;;5132164;27;19950;-57
2021/07/19 00:53:20;;;;;;;;;;;24.40;76.90;;;;;;5131670;27;19930;-57
2021/07/19 00:55:48;;;;;;;;;;;24.30;76.70;;;;;;5119198;27;19927;-57
2021/07/19 00:58:17;;;;;;;;;;;24.40;76.80;;;;;;5129672;27;19924;-57
2021/07/19 01:00:49;;;;;;;;;;;24.30;76.70;;;;;;5121362;27;20375;-57
2021/07/19 01:03:18;;;;;;;;;;;24.30;76.70;;;;;;5129140;27;19969;-57
2021/07/19 01:05:45;;;;;;;;;;;24.30;76.70;;;;;;5130458;27;20345;-57
2021/07/19 01:08:13;;;;;;;;;;;24.30;76.70;;;;;;5131447;27;19952;-57
2021/07/19 01:10:40;;;;;;;;;;;24.30;76.60;;;;;;5130222;27;20428;-58
2021/07/19 01:13:07;;;;;;;;;;;24.30;76.70;;;;;;5133201;27;20336;-57
2021/07/19 01:15:35;;;;;;;;;;;24.30;76.60;;;;;;5134146;27;19928;-58
2021/07/19 01:18:03;;;;;;;;;;;24.30;76.60;;;;;;5130661;27;19924;-57
2021/07/19 01:20:32;;;;;;;;;;;24.30;76.50;;;;;;5131589;27;19923;-57
2021/07/19 01:22:59;;;;;;;;;;;24.30;76.50;;;;;;5131297;27;19923;-57
2021/07/19 01:25:45;;;;;;;;;;;24.30;76.50;;;;;;5131912;27;19924;-58
2021/07/19 01:28:15;;;;;;;;;;;24.30;76.40;;;;;;5115859;27;20343;-57
2021/07/19 01:30:43;;;;;;;;;;;24.30;76.40;;;;;;5130041;27;20013;-57
2021/07/19 01:33:11;;;;;;;;;;;24.30;76.40;;;;;;5130871;27;20006;-58
2021/07/19 01:35:40;;;;;;;;;;;24.30;76.30;;;;;;5132182;27;19923;-57
2021/07/19 01:38:08;;;;;;;;;;;24.30;76.30;;;;;;5129998;27;19939;-57
2021/07/19 01:40:36;;;;;;;;;;;24.30;76.30;;;;;;5131260;27;19928;-58
2021/07/19 01:43:03;;;;;;;;;;;24.30;76.20;;;;;;5131426;27;19924;-58
2021/07/19 01:45:30;;;;;;;;;;;24.30;76.30;;;;;;5129969;27;19928;-58
2021/07/19 01:47:58;;;;;;;;;;;24.30;76.20;;;;;;5130919;27;20415;-58
2021/07/19 01:50:25;;;;;;;;;;;24.30;76.20;;;;;;5114317;28;19997;-58
2021/07/19 01:52:52;;;;;;;;;;;24.30;76.20;;;;;;5114769;28;19927;-57
2021/07/19 01:55:19;;;;;;;;;;;24.30;76.20;;;;;;5114450;28;19924;-58
2021/07/19 01:57:46;;;;;;;;;;;24.30;76.10;;;;;;5131697;28;19923;-58
2021/07/19 02:00:13;;;;;;;;;;;24.30;76.20;;;;;;5131177;28;19923;-58
2021/07/19 02:02:40;;;;;;;;;;;24.20;76.10;;;;;;5132187;28;19924;-58
2021/07/19 02:05:12;;;;;;;;;;;24.30;76.30;;;;;;5130789;28;20367;-58
2021/07/19 02:07:41;;;;;;;;;;;24.20;76.10;;;;;;5129896;28;19928;-58
2021/07/19 02:10:10;;;;;;;;;;;24.20;76.00;;;;;;5131271;28;19923;-58
2021/07/19 02:12:38;;;;;;;;;;;24.20;76.10;;;;;;5129908;28;20268;-58
2021/07/19 02:15:07;;;;;;;;;;;24.20;76.10;;;;;;5132140;28;19928;-58
2021/07/19 02:17:35;;;;;;;;;;;24.20;76.00;;;;;;5129819;28;19988;-57
2021/07/19 02:20:06;;;;;;;;;;;24.20;76.00;;;;;;5131021;28;19927;-58
2021/07/19 02:22:33;;;;;;;;;;;24.20;76.00;;;;;;5131671;28;19923;-58
2021/07/19 02:25:00;;;;;;;;;;;24.20;76.00;;;;;;5131310;28;20328;-58
2021/07/19 02:27:28;;;;;;;;;;;24.20;75.90;;;;;;5129378;28;19931;-58
2021/07/19 02:29:55;;;;;;;;;;;24.20;75.90;;;;;;5131606;28;19976;-58
2021/07/19 02:32:22;;;;;;;;;;;24.20;75.90;;;;;;5132067;28;19969;-58
2021/07/19 02:34:50;;;;;;;;;;;24.20;75.90;;;;;;5130727;28;19972;-58
2021/07/19 02:37:17;;;;;;;;;;;24.20;75.90;;;;;;5132189;28;19928;-58
2021/07/19 02:39:44;;;;;;;;;;;24.20;75.90;;;;;;5129374;28;19923;-58
2021/07/19 02:42:11;;;;;;;;;;;24.20;75.90;;;;;;5128998;28;19959;-58
2021/07/19 02:44:38;;;;;;;;;;;24.20;75.80;;;;;;5117509;28;19923;-58
2021/07/19 02:47:06;;;;;;;;;;;24.20;75.80;;;;;;5113968;28;19935;-58
2021/07/19 02:49:35;;;;;;;;;;;24.20;75.90;;;;;;5130495;28;19923;-58
2021/07/19 02:52:04;;;;;;;;;;;24.20;75.80;;;;;;5114275;28;19931;-58
2021/07/19 02:54:32;;;;;;;;;;;24.20;75.80;;;;;;5131335;28;19978;-57
2021/07/19 02:56:59;;;;;;;;;;;24.10;75.70;;;;;;5130916;28;19925;-58
2021/07/19 02:59:27;;;;;;;;;;;24.20;75.70;;;;;;5130545;28;20010;-58
2021/07/19 03:01:55;;;;;;;;;;;24.20;75.60;;;;;;5132312;27;20386;-58
2021/07/19 03:04:23;;;;;;;;;;;24.20;75.50;;;;;;5132728;27;19923;-58
2021/07/19 03:06:50;;;;;;;;;;;24.20;75.40;;;;;;5136359;27;20356;-58
2021/07/19 03:09:19;;;;;;;;;;;24.10;75.30;;;;;;5132628;27;19924;-58
2021/07/19 03:11:48;;;;;;;;;;;24.10;75.30;;;;;;5136679;27;19931;-58
2021/07/19 03:14:20;;;;;;;;;;;24.10;75.30;;;;;;5134029;27;19999;-58
2021/07/19 03:16:49;;;;;;;;;;;24.20;75.30;;;;;;5136655;27;19988;-58
2021/07/19 03:19:17;;;;;;;;;;;24.10;75.20;;;;;;5133959;27;19931;-58
2021/07/19 03:21:45;;;;;;;;;;;24.10;75.30;;;;;;5132998;27;19934;-58
2021/07/19 03:24:12;;;;;;;;;;;24.10;75.90;;;;;;5135066;27;19923;-58
2021/07/19 03:26:40;;;;;;;;;;;24.10;75.20;;;;;;5133078;27;20366;-58
2021/07/19 03:29:08;;;;;;;;;;;24.10;75.10;;;;;;5126156;27;19931;-58
2021/07/19 03:31:35;;;;;;;;;;;24.10;75.10;;;;;;5127287;27;19976;-58
2021/07/19 03:34:03;;;;;;;;;;;24.10;75.10;;;;;;5133200;27;19931;-58
2021/07/19 03:36:31;;;;;;;;;;;24.10;75.00;;;;;;5128223;27;19928;-57
2021/07/19 03:38:59;;;;;;;;;;;24.10;75.00;;;;;;5120586;27;19923;-58
2021/07/19 03:41:28;;;;;;;;;;;24.10;75.00;;;;;;5134632;27;19923;-58
2021/07/19 03:43:56;;;;;;;;;;;24.10;75.00;;;;;;5134641;27;20336;-58
2021/07/19 03:46:24;;;;;;;;;;;24.10;74.90;;;;;;5134782;27;20023;-58
2021/07/19 03:48:52;;;;;;;;;;;24.10;74.90;;;;;;5133140;27;19923;-57
2021/07/19 03:51:19;;;;;;;;;;;24.10;74.90;;;;;;5117819;27;19972;-58
2021/07/19 03:53:46;;;;;;;;;;;24.10;74.90;;;;;;5131866;27;20441;-58
2021/07/19 03:56:13;;;;;;;;;;;24.10;74.90;;;;;;5134319;27;19927;-58
2021/07/19 03:58:40;;;;;;;;;;;24.10;74.90;;;;;;5115832;27;20018;-58
2021/07/19 04:01:08;;;;;;;;;;;24.10;75.00;;;;;;5134399;27;19923;-58
2021/07/19 04:03:52;;;;;;;;;;;24.10;74.90;;;;;;5132986;27;19928;-58
2021/07/19 04:06:20;;;;;;;;;;;24.10;74.90;;;;;;5134582;27;20012;-58
2021/07/19 04:08:48;;;;;;;;;;;24.10;74.90;;;;;;5133414;27;19923;-58
2021/07/19 04:11:18;;;;;;;;;;;24.10;74.90;;;;;;5134326;27;19931;-58
2021/07/19 04:13:45;;;;;;;;;;;24.10;74.90;;;;;;5132347;27;19931;-58
2021/07/19 04:16:14;;;;;;;;;;;24.20;75.00;;;;;;5133865;27;19955;-58
2021/07/19 04:18:41;;;;;;;;;;;24.10;74.90;;;;;;5117052;27;20389;-58
2021/07/19 04:21:10;;;;;;;;;;;24.20;74.90;;;;;;5131367;27;19924;-58
2021/07/19 04:23:37;;;;;;;;;;;24.20;74.90;;;;;;5117024;27;19930;-58
2021/07/19 04:26:05;;;;;;;;;;;24.20;74.90;;;;;;5122038;27;19924;-58
2021/07/19 04:28:33;;;;;;;;;;;24.20;74.80;;;;;;5116941;27;19963;-57
2021/07/19 04:31:00;;;;;;;;;;;24.20;74.80;;;;;;5128159;27;19923;-58
2021/07/19 04:33:27;;;;;;;;;;;24.20;74.80;;;;;;5115304;27;20015;-58
2021/07/19 04:35:54;;;;;;;;;;;24.20;74.80;;;;;;5114273;27;20291;-58
2021/07/19 04:38:23;;;;;;;;;;;24.20;74.90;;;;;;5132671;27;19962;-58
2021/07/19 04:40:57;;;;;;;;;;;24.20;74.90;;;;;;5112409;27;19930;-58
2021/07/19 04:43:24;;;;;;;;;;;24.20;74.90;;;;;;5133644;27;19992;-58
2021/07/19 04:45:52;;;;;;;;;;;24.20;75.00;;;;;;5132204;27;19966;-58
2021/07/19 04:48:19;;;;;;;;;;;24.30;75.10;;;;;;5130666;27;19927;-58
2021/07/19 04:50:47;;;;;;;;;;;24.30;75.10;;;;;;5130634;27;19927;-58
2021/07/19 04:53:14;;;;;;;;;;;24.30;75.00;;;;;;5133554;27;19923;-58
2021/07/19 04:55:52;;;;;;;;;;;24.30;75.00;;;;;;5131722;27;19976;-58
2021/07/19 04:58:23;;;;;;;;;;;24.30;75.00;;;;;;5133221;27;19924;-58
2021/07/19 05:00:59;;;;;;;;;;;24.30;75.00;;;;;;5131665;27;19993;-58
2021/07/19 05:03:29;;;;;;;;;;;24.30;74.90;;;;;;5133249;27;19923;-58
2021/07/19 05:05:58;;;;;;;;;;;24.40;74.90;;;;;;5131876;27;19930;-58
2021/07/19 05:08:25;;;;;;;;;;;24.40;74.90;;;;;;5130677;27;19941;-58
2021/07/19 05:10:53;;;;;;;;;;;24.40;74.80;;;;;;5133114;27;19927;-58
2021/07/19 05:13:20;;;;;;;;;;;24.40;74.70;;;;;;5131448;27;19924;-58
2021/07/19 05:15:48;;;;;;;;;;;24.40;74.60;;;;;;5114813;27;19939;-58
2021/07/19 05:18:17;;;;;;;;;;;24.50;74.70;;;;;;5132753;27;19934;-58
2021/07/19 05:20:47;;;;;;;;;;;24.50;74.60;;;;;;5114152;28;19935;-55
2021/07/19 05:23:20;;;;;;;;;;;24.60;74.60;;;;;;5114331;28;19924;-58
2021/07/19 05:25:47;;;;;;;;;;;24.60;74.60;;;;;;5132827;27;19923;-58
2021/07/19 05:28:14;;;;;;;;;;;24.60;74.50;;;;;;5133164;27;19974;-59
2021/07/19 05:30:43;;;;;;;;;;;24.60;74.40;;;;;;5130060;27;19969;-58
2021/07/19 05:33:11;;;;;;;;;;;24.70;74.40;;;;;;5132181;27;19923;-58
2021/07/19 05:35:38;;;;;;;;;;;24.70;74.30;;;;;;5129183;27;20367;-58
2021/07/19 05:38:06;;;;;;;;;;;24.70;74.30;;;;;;5130653;27;19966;-58
2021/07/19 05:40:33;;;;;;;;;;;24.80;74.10;;;;;;5113940;27;20447;-58
2021/07/19 05:43:00;;;;;;;;;;;24.90;74.00;;;;;;5131285;27;20379;-58
2021/07/19 05:45:27;;;;;;;;;;;24.90;73.80;;;;;;5131552;27;19923;-58
2021/07/19 05:47:54;;;;;;;;;;;24.90;73.90;;;;;;5129866;28;19924;-58
2021/07/19 05:50:21;;;;;;;;;;;24.90;73.90;;;;;;5131573;28;19968;-58
2021/07/19 05:52:48;;;;;;;;;;;24.90;74.00;;;;;;5132709;28;19927;-58
2021/07/19 05:55:16;;;;;;;;;;;24.90;74.00;;;;;;5132007;28;20402;-58
2021/07/19 05:57:44;;;;;;;;;;;24.90;73.90;;;;;;5129757;28;19977;-58
2021/07/19 06:00:16;;;;;;;;;;;24.90;73.80;;;;;;5131365;28;19968;-59
2021/07/19 06:02:43;;;;;;;;;;;24.90;73.70;;;;;;5132547;28;19924;-58
2021/07/19 06:05:11;;;;;;;;;;;25.00;73.80;;;;;;5132316;28;19923;-59
2021/07/19 06:07:38;;;;;;;;;;;25.00;73.70;;;;;;5132097;28;19967;-59
2021/07/19 06:10:06;;;;;;;;;;;25.00;73.50;;;;;;5130685;28;19923;-59
2021/07/19 06:12:34;;;;;;;;;;;25.10;73.40;;;;;;5117355;28;20341;-59
2021/07/19 06:15:01;;;;;;;;;;;25.10;73.30;;;;;;5131356;28;19923;-59
2021/07/19 06:17:30;;;;;;;;;;;25.10;73.30;;;;;;5130759;28;19927;-59
2021/07/19 06:19:57;;;;;;;;;;;25.20;73.60;;;;;;5132233;28;19930;-59
2021/07/19 06:22:24;;;;;;;;;;;25.10;73.50;;;;;;5114907;28;19924;-59
2021/07/19 06:24:51;;;;;;;;;;;25.10;73.70;;;;;;5131281;28;20045;-58
2021/07/19 06:27:18;;;;;;;;;;;25.20;73.80;;;;;;5132923;28;19939;-59
2021/07/19 06:29:45;;;;;;;;;;;25.20;73.60;;;;;;5131332;28;19966;-57
2021/07/19 06:32:12;;;;;;;;;;;25.20;73.60;;;;;;5131818;28;20379;-58
2021/07/19 06:34:39;;;;;;;;;;;25.20;73.70;;;;;;5130137;27;19976;-58
2021/07/19 06:37:06;;;;;;;;;;;25.30;73.40;;;;;;5134199;27;19962;-59
2021/07/19 06:39:34;;;;;;;;;;;25.30;73.30;;;;;;5134769;27;19993;-59
2021/07/19 06:42:02;;;;;;;;;;;25.30;73.50;;;;;;5134755;27;19923;-59
2021/07/19 06:44:29;;;;;;;;;;;25.30;73.70;;;;;;5135865;27;19972;-59
2021/07/19 06:46:58;;;;;;;;;;;25.30;73.70;;;;;;5136943;27;19931;-59
2021/07/19 06:49:26;;;;;;;;;;;25.30;73.70;;;;;;5136631;27;19928;-59
2021/07/19 06:51:54;;;;;;;;;;;25.40;73.80;;;;;;5133018;27;19967;-58
2021/07/19 06:54:21;;;;;;;;;;;25.40;73.70;;;;;;5134072;27;19924;-58
2021/07/19 06:56:48;;;;;;;;;;;25.40;73.30;;;;;;5132872;27;19969;-58
2021/07/19 06:59:16;;;;;;;;;;;25.40;74.40;;;;;;5132977;27;19923;-58
2021/07/19 07:01:43;;;;;;;;;;;25.40;73.70;;;;;;5132868;27;20332;-58
2021/07/19 07:04:10;;;;;;;;;;;25.50;73.80;;;;;;5133914;27;20006;-58
2021/07/19 07:06:37;;;;;;;;;;;25.50;73.60;;;;;;5130879;27;19931;-58
2021/07/19 07:09:05;;;;;;;;;;;25.50;73.40;;;;;;5117309;27;20263;-58
2021/07/19 07:11:32;;;;;;;;;;;25.50;73.60;;;;;;5117677;27;19924;-58
2021/07/19 07:13:59;;;;;;;;;;;25.40;74.10;;;;;;5117543;27;20336;-58
2021/07/19 07:16:26;;;;;;;;;;;25.40;73.90;;;;;;5133823;27;19993;-59
2021/07/19 07:18:55;;;;;;;;;;;25.50;74.10;;;;;;5134817;27;19924;-58
2021/07/19 07:21:24;;;;;;;;;;;25.50;74.20;;;;;;5133608;27;19971;-59
2021/07/19 07:23:51;;;;;;;;;;;25.50;73.70;;;;;;5116535;27;19923;-58
2021/07/19 07:26:18;;;;;;;;;;;25.60;73.80;;;;;;5136425;27;19988;-58
2021/07/19 07:28:46;;;;;;;;;;;25.60;73.90;;;;;;5132123;27;19972;-59
2021/07/19 07:31:13;;;;;;;;;;;25.60;73.80;;;;;;5133524;27;20340;-58
2021/07/19 07:33:40;;;;;;;;;;;25.70;73.70;;;;;;5133361;27;19924;-58
2021/07/19 07:36:08;;;;;;;;;;;25.70;73.20;;;;;;5123964;27;20282;-58
2021/07/19 07:38:35;;;;;;;;;;;25.70;73.40;;;;;;5129421;27;19924;-58
2021/07/19 07:41:02;;;;;;;;;;;25.70;73.50;;;;;;5134693;27;19927;-58
2021/07/19 07:43:30;;;;;;;;;;;25.70;73.40;;;;;;5135897;27;20112;-58
2021/07/19 07:45:57;;;;;;;;;;;25.60;73.50;;;;;;5132098;27;19927;-58
2021/07/19 07:48:24;;;;;;;;;;;25.60;73.60;;;;;;5132938;27;19924;-58
2021/07/19 07:50:51;;;;;;;;;;;25.60;73.40;;;;;;5132109;27;19923;-58
2021/07/19 07:53:18;;;;;;;;;;;25.60;73.40;;;;;;5132739;27;19976;-58
2021/07/19 07:55:45;;;;;;;;;;;25.70;73.90;;;;;;5129089;27;19924;-58
2021/07/19 07:58:12;;;;;;;;;;;25.60;73.20;;;;;;5105572;27;20327;-58
2021/07/19 08:00:39;;;;;;;;;;;25.70;73.30;;;;;;5128765;27;19974;-58
2021/07/19 08:03:06;;;;;;;;;;;25.70;73.70;;;;;;5119432;27;19923;-58
2021/07/19 08:05:33;;;;;;;;;;;25.70;73.20;;;;;;5133963;27;19962;-58
2021/07/19 08:08:01;;;;;;;;;;;25.70;72.90;;;;;;5132557;27;19927;-58
2021/07/19 08:10:28;;;;;;;;;;;25.80;73.00;;;;;;5134099;27;20275;-58
2021/07/19 08:12:56;;;;;;;;;;;25.80;72.70;;;;;;5132441;27;20362;-59
2021/07/19 08:15:23;;;;;;;;;;;25.90;72.40;;;;;;5133522;27;19968;-58
2021/07/19 08:17:50;;;;;;;;;;;25.90;72.30;;;;;;5117178;27;19930;-59
2021/07/19 08:20:17;;;;;;;;;;;25.90;72.10;;;;;;5116960;27;20390;-58
2021/07/19 08:22:47;;;;;;;;;;;25.90;72.00;;;;;;5132826;27;19927;-59
2021/07/19 08:25:14;;;;;;;;;;;26.00;71.90;;;;;;5133757;27;19976;-59
2021/07/19 08:27:41;;;;;;;;;;;26.00;72.10;;;;;;5115760;27;19931;-59
2021/07/19 08:30:10;;;;;;;;;;;26.00;72.10;;;;;;5130082;27;20444;-59
2021/07/19 08:32:37;;;;;;;;;;;26.00;72.00;;;;;;5131078;27;19928;-59
2021/07/19 08:35:14;;;;;;;;;;;26.10;72.00;;;;;;5133405;27;19924;-59
2021/07/19 08:37:44;;;;;;;;;;;26.10;71.50;;;;;;5129176;27;20046;-59
2021/07/19 08:40:13;;;;;;;;;;;26.10;71.10;;;;;;5133591;27;19959;-59
2021/07/19 08:42:40;;;;;;;;;;;26.20;71.10;;;;;;5132541;27;19927;-59
2021/07/19 08:45:08;;;;;;;;;;;26.20;71.30;;;;;;5130810;27;19980;-59
2021/07/19 08:47:38;;;;;;;;;;;26.20;71.00;;;;;;5131841;27;20461;-59
2021/07/19 08:50:07;;;;;;;;;;;26.20;70.60;;;;;;5133220;27;19970;-59
2021/07/19 08:52:34;;;;;;;;;;;26.20;70.20;;;;;;5130651;27;19924;-59
2021/07/19 08:55:02;;;;;;;;;;;26.20;70.00;;;;;;5130077;27;19977;-59
2021/07/19 08:57:29;;;;;;;;;;;26.20;69.70;;;;;;5131466;27;19931;-59
2021/07/19 08:59:58;;;;;;;;;;;26.20;69.30;;;;;;5127069;27;19945;-59
2021/07/19 09:02:25;;;;;;;;;;;26.30;69.60;;;;;;5116117;27;19927;-58
2021/07/19 09:04:52;;;;;;;;;;;26.30;69.40;;;;;;5115552;27;20333;-58
2021/07/19 09:07:20;;;;;;;;;;;26.30;69.10;;;;;;5119714;27;19923;-58
2021/07/19 09:09:49;;;;;;;;;;;26.40;68.40;;;;;;5128825;27;20391;-59
2021/07/19 09:12:17;;;;;;;;;;;26.40;68.10;;;;;;5116975;27;19953;-58
2021/07/19 09:14:47;;;;;;;;;;;26.40;68.10;;;;;;5131369;27;19959;-59
2021/07/19 09:17:24;;;;;;;;;;;26.40;67.30;;;;;;5130551;27;19954;-59
2021/07/19 09:19:52;;;;;;;;;;;26.50;67.50;;;;;;5113473;27;20276;-58
2021/07/19 09:22:22;;;;;;;;;;;26.40;67.00;;;;;;5131823;27;19930;-58
2021/07/19 09:24:49;;;;;;;;;;;26.50;66.70;;;;;;5134195;27;20320;-59
2021/07/19 09:27:19;;;;;;;;;;;26.50;66.90;;;;;;5113213;28;19927;-58
2021/07/19 09:29:47;;;;;;;;;;;26.60;66.40;;;;;;5131507;27;19977;-59
2021/07/19 09:32:14;;;;;;;;;;;26.60;66.30;;;;;;5132967;27;19973;-59
2021/07/19 09:34:41;;;;;;;;;;;26.60;66.40;;;;;;5131570;27;19953;-59
2021/07/19 09:37:10;;;;;;;;;;;26.60;66.50;;;;;;5130117;27;19968;-59
2021/07/19 09:39:44;;;;;;;;;;;26.60;66.40;;;;;;5131662;27;19934;-59
2021/07/19 09:42:15;;;;;;;;;;;26.70;66.10;;;;;;5133534;27;19924;-59
2021/07/19 09:44:50;;;;;;;;;;;26.60;66.20;;;;;;5131593;27;19923;-59
2021/07/19 09:47:17;;;;;;;;;;;26.70;66.00;;;;;;5131338;27;19966;-59
2021/07/19 09:49:44;;;;;;;;;;;26.70;66.00;;;;;;5111531;28;19923;-59
2021/07/19 09:52:12;;;;;;;;;;;26.70;65.80;;;;;;5132431;28;20370;-59
2021/07/19 09:54:43;;;;;;;;;;;26.80;65.40;;;;;;5131081;28;19980;-59
2021/07/19 09:57:11;;;;;;;;;;;26.80;65.30;;;;;;5132549;28;19923;-59
2021/07/19 09:59:51;;;;;;;;;;;26.80;65.50;;;;;;5132179;28;19923;-58
2021/07/19 10:02:30;;;;;;;;;;;26.80;65.50;;;;;;5131053;28;19927;-59
2021/07/19 10:04:58;;;;;;;;;;;26.80;65.60;;;;;;5118465;28;19924;-58
2021/07/19 10:07:25;;;;;;;;;;;26.90;65.60;;;;;;5129096;28;19969;-58
2021/07/19 10:09:59;;;;;;;;;;;26.90;65.50;;;;;;5122742;28;20389;-58
2021/07/19 10:12:26;;;;;;;;;;;26.90;65.50;;;;;;5128728;27;19931;-58
2021/07/19 10:14:54;;;;;;;;;;;26.90;65.60;;;;;;5123976;27;20375;-58
2021/07/19 10:17:41;;;;;;;;;;;26.90;65.30;;;;;;5129618;27;20014;-58
2021/07/19 10:20:09;;;;;;;;;;;26.90;65.30;;;;;;5135660;27;19970;-58
2021/07/19 10:22:38;;;;;;;;;;;26.90;65.30;;;;;;5135118;27;20043;-59
2021/07/19 10:25:06;;;;;;;;;;;26.90;64.80;;;;;;5135308;27;20321;-59
2021/07/19 10:27:36;;;;;;;;;;;26.90;65.00;;;;;;5134982;27;19928;-59
2021/07/19 10:30:04;;;;;;;;;;;26.90;64.80;;;;;;5133390;27;19927;-59
2021/07/19 10:32:31;;;;;;;;;;;26.90;65.10;;;;;;5134572;27;20398;-59
2021/07/19 10:34:58;;;;;;;;;;;26.90;64.70;;;;;;5134321;27;19930;-59
2021/07/19 10:37:29;;;;;;;;;;;26.90;64.60;;;;;;5117565;27;19928;-59
2021/07/19 10:39:57;;;;;;;;;;;26.90;64.70;;;;;;5119037;27;19950;-59
2021/07/19 10:42:34;;;;;;;;;;;26.90;64.70;;;;;;5123674;27;19966;-59
2021/07/19 10:45:15;;;;;;;;;;;26.90;64.90;;;;;;5133308;27;19928;-59
2021/07/19 10:47:56;;;;;;;;;;;26.80;64.40;;;;;;5134309;27;19981;-59
2021/07/19 10:50:26;;;;;;;;;;;26.80;64.50;;;;;;5128808;27;19923;-59
2021/07/19 10:52:55;;;;;;;;;;;26.90;64.50;;;;;;5122532;27;19924;-59
2021/07/19 10:55:26;;;;;;;;;;;26.90;64.20;;;;;;5134269;27;20297;-59
2021/07/19 10:58:19;;;;;;;;;;;26.90;64.20;;;;;;5133347;27;20419;-59
2021/07/19 11:00:47;;;;;;;;;;;26.90;63.90;;;;;;5128618;27;19923;-59
2021/07/19 11:03:15;;;;;;;;;;;26.90;64.30;;;;;;5134066;27;19930;-59
2021/07/19 11:05:44;;;;;;;;;;;26.90;64.30;;;;;;5115026;27;19968;-59
2021/07/19 11:08:22;;;;;;;;;;;26.90;64.50;;;;;;5135750;27;19923;-59
2021/07/19 11:10:51;;;;;;;;;;;26.90;64.40;;;;;;5133953;27;19931;-59
2021/07/19 11:13:34;;;;;;;;;;;26.90;64.30;;;;;;5133860;27;19927;-59
2021/07/19 11:16:12;;;;;;;;;;;26.80;64.30;;;;;;5133266;27;19967;-59
2021/07/19 11:18:39;;;;;;;;;;;26.80;64.50;;;;;;5132659;27;20015;-59
2021/07/19 11:21:06;;;;;;;;;;;26.80;64.70;;;;;;5115341;27;19923;-59
2021/07/19 11:23:35;;;;;;;;;;;26.70;64.70;;;;;;5133998;27;20353;-57
2021/07/19 11:26:03;;;;;;;;;;;26.70;64.70;;;;;;5130664;27;20017;-59
2021/07/19 11:28:39;;;;;;;;;;;26.70;64.60;;;;;;5120257;27;19970;-59
2021/07/19 11:31:13;;;;;;;;;;;26.70;64.60;;;;;;5130905;27;19931;-59
2021/07/19 11:33:43;;;;;;;;;;;26.70;64.60;;;;;;5121886;27;20502;-59
2021/07/19 11:36:17;;;;;;;;;;;26.70;64.40;;;;;;5129677;27;20303;-59
2021/07/19 11:38:44;;;;;;;;;;;26.70;64.30;;;;;;5134731;27;20432;-59
2021/07/19 11:41:31;;;;;;;;;;;26.80;64.20;;;;;;5132738;27;20059;-59
2021/07/19 11:44:00;;;;;;;;;;;26.80;64.00;;;;;;5129963;27;20011;-59
2021/07/19 11:46:29;;;;;;;;;;;26.80;63.80;;;;;;5120957;27;19923;-59
2021/07/19 11:48:58;;;;;;;;;;;26.80;63.70;;;;;;5133052;27;19967;-59
2021/07/19 11:51:25;;;;;;;;;;;26.80;63.80;;;;;;5131981;27;19923;-59
2021/07/19 11:53:53;;;;;;;;;;;26.80;63.80;;;;;;5131951;27;19932;-59
2021/07/19 11:56:21;;;;;;;;;;;26.80;63.80;;;;;;5133722;27;20429;-59
2021/07/19 11:58:51;;;;;;;;;;;26.70;63.60;;;;;;5121368;27;19924;-59
2021/07/19 12:01:48;;;;;;;;;;;26.70;63.60;;;;;;5115209;27;19930;-59
2021/07/19 12:04:18;;;;;;;;;;;26.70;63.40;;;;;;5098501;27;19967;-59
2021/07/19 12:06:50;;;;;;;;;;;26.70;63.40;;;;;;5131712;27;19938;-59
2021/07/19 12:09:18;;;;;;;;;;;26.70;63.30;;;;;;5126436;27;19927;-59
2021/07/19 12:11:55;;;;;;;;;;;26.70;63.30;;;;;;5132410;27;19924;-59
2021/07/19 12:14:22;;;;;;;;;;;26.70;63.30;;;;;;5133574;27;19927;-59
2021/07/19 12:16:49;;;;;;;;;;;26.70;63.30;;;;;;5129072;27;19923;-59
2021/07/19 12:19:18;;;;;;;;;;;26.70;62.90;;;;;;5116671;27;19924;-59
2021/07/19 12:21:46;;;;;;;;;;;26.70;62.80;;;;;;5116371;27;20321;-59
2021/07/19 12:24:14;;;;;;;;;;;26.70;62.80;;;;;;5115437;27;20007;-59
2021/07/19 12:26:43;;;;;;;;;;;26.70;62.80;;;;;;5116349;27;19973;-59
2021/07/19 12:29:12;;;;;;;;;;;26.70;62.60;;;;;;5133554;27;19931;-59
2021/07/19 12:31:43;;;;;;;;;;;26.70;62.80;;;;;;5129837;27;19924;-59
2021/07/19 12:34:16;;;;;;;;;;;26.60;62.70;;;;;;5118253;27;20406;-59
2021/07/19 12:36:51;;;;;;;;;;;26.70;62.60;;;;;;5133508;27;20387;-59
2021/07/19 12:39:41;;;;;;;;;;;26.60;62.10;;;;;;5133175;27;19927;-59
2021/07/19 12:42:12;;;;;;;;;;;26.60;61.50;;;;;;5119400;27;19957;-59
2021/07/19 12:44:40;;;;;;;;;;;26.60;61.50;;;;;;5133890;27;19955;-59
2021/07/19 12:47:08;;;;;;;;;;;26.60;61.60;;;;;;5133200;27;20401;-59
2021/07/19 12:49:39;;;;;;;;;;;26.60;61.40;;;;;;5134934;27;19972;-59
2021/07/19 12:52:12;;;;;;;;;;;26.60;60.80;;;;;;5115250;27;19924;-59
2021/07/19 12:55:12;;;;;;;;;;;26.60;61.30;;;;;;5169441;27;20010;-59
2021/07/19 12:57:41;;;;;;;;;;;26.60;61.10;;;;;;5138521;27;20389;-60
2021/07/19 13:00:12;;;;;;;;;;;26.50;61.40;;;;;;5147130;27;19924;-60
2021/07/19 13:02:39;;;;;;;;;;;26.50;61.30;;;;;;5149036;27;19923;-59
2021/07/19 13:05:08;;;;;;;;;;;26.50;61.30;;;;;;5151324;27;19924;-59
2021/07/19 13:07:35;;;;;;;;;;;26.50;61.10;;;;;;5151520;27;20493;-59
2021/07/19 13:10:06;;;;;;;;;;;26.60;61.30;;;;;;5149210;27;19930;-59
2021/07/19 13:12:34;;;;;;;;;;;26.50;61.10;;;;;;5138551;27;19924;-60
2021/07/19 13:15:05;;;;;;;;;;;26.60;61.40;;;;;;5141378;27;19934;-60
2021/07/19 13:17:33;;;;;;;;;;;26.60;60.50;;;;;;5149158;27;19923;-59
2021/07/19 13:20:10;;;;;;;;;;;26.60;60.40;;;;;;5149581;27;19924;-59
2021/07/19 13:22:38;;;;;;;;;;;26.70;60.30;;;;;;5145441;27;19999;-60
2021/07/19 13:25:08;;;;;;;;;;;26.70;59.80;;;;;;5145368;27;19969;-59
2021/07/19 13:27:42;;;;;;;;;;;26.70;59.60;;;;;;5140150;27;19923;-59
2021/07/19 13:30:11;;;;;;;;;;;26.70;59.60;;;;;;5145827;27;19923;-57
2021/07/19 13:32:38;;;;;;;;;;;26.70;59.70;;;;;;5142687;27;20524;-58
2021/07/19 13:35:10;;;;;;;;;;;26.70;59.50;;;;;;5120891;27;19923;-58
2021/07/19 13:37:40;;;;;;;;;;;26.70;59.50;;;;;;5119424;28;19928;-58
2021/07/19 13:40:22;;;;;;;;;;;26.70;59.20;;;;;;5142017;27;20022;-58
2021/07/19 13:43:00;;;;;;;;;;;26.70;59.30;;;;;;5132183;27;20011;-58
2021/07/19 13:45:27;;;;;;;;;;;26.70;59.00;;;;;;5148354;27;19934;-58
2021/07/19 13:47:56;;;;;;;;;;;26.80;59.00;;;;;;5149723;27;19958;-59
2021/07/19 13:50:24;;;;;;;;;;;26.80;58.90;;;;;;5150148;27;19993;-59
2021/07/19 13:52:51;;;;;;;;;;;26.80;59.10;;;;;;5147606;27;19992;-58
2021/07/19 13:55:18;;;;;;;;;;;26.80;58.90;;;;;;5147505;27;20052;-58
2021/07/19 13:57:45;;;;;;;;;;;26.80;58.90;;;;;;5149978;27;19923;-58
2021/07/19 14:00:16;;;;;;;;;;;26.80;58.80;;;;;;5150215;27;19962;-58
2021/07/19 14:02:44;;;;;;;;;;;26.80;58.70;;;;;;5148110;27;20312;-58
2021/07/19 14:05:13;;;;;;;;;;;26.80;59.00;;;;;;5131604;27;19924;-58
2021/07/19 14:07:41;;;;;;;;;;;26.80;59.10;;;;;;5124541;27;19923;-58
2021/07/19 14:10:08;;;;;;;;;;;26.70;59.30;;;;;;5134509;27;19923;-57
2021/07/19 14:12:35;;;;;;;;;;;26.70;59.70;;;;;;5135261;27;20290;-59
2021/07/19 14:15:05;;;;;;;;;;;26.70;60.10;;;;;;5129350;27;19967;-58
2021/07/19 14:17:32;;;;;;;;;;;26.70;60.40;;;;;;5118628;27;19931;-59
2021/07/19 14:19:59;;;;;;;;;;;26.60;60.80;;;;;;5118312;27;19927;-58
2021/07/19 14:22:26;;;;;;;;;;;26.60;61.30;;;;;;5134306;27;20383;-58
2021/07/19 14:24:53;;;;;;;;;;;26.50;61.70;;;;;;5134070;27;19923;-58
2021/07/19 14:27:20;;;;;;;;;;;26.50;62.10;;;;;;5121693;27;19931;-58